»·PEaware :: N6656 MMML-KSAN

N6656 :: MMML-KSAN

FLIGHT INFORMATION

Flight Status: Arrived
Operator: Privately registered:
United States
More flights under this callsign
Pilot: Alan J. (5709)
Aircraft: CESSNA 550 CITATION 2/S2/BRAVO
(C550)
More flights by this aircraft type
Origin: MMML Gen Rodolfo Sanchez Taboada
Mexico
Destination: KSAN San Diego Intl-Lindbergh
United States
More flights between these airports :: More routes between these airports
Route: +IPL BARET5
File this flight plan on PilotEdge
Remarks: / Z equipped
Altitude:
(Current/Filed)
10,000ft
Speed:
(Current/Filed)
250kts
Departed: 08-Apr-15 07:10 AM
Arrived: 08-Apr-15 07:40 AM
Distance/Time
Traveled:
98nm/0:30
Distance/Time
To Go:
Arrived

Flight Plot

Page will automatically refresh every two minutes.

Flight plan parsing failed; only flown route is shown


Map Options




Map Legend


Flown Route
Filed Route
Departure Airport
Arrival Airport
Navaid (VOR, NDB)
Fix

Horizontal Profiles

Position Reports

Time Latitude Longitude Heading Altitude Ground
Speed
08-Apr-15 06:48 32.627948 -115.246278 209 77ft 0kts
08-Apr-15 06:49 32.627948 -115.246278 209 77ft 0kts
08-Apr-15 06:50 32.627948 -115.246278 209 77ft 0kts
08-Apr-15 06:51 32.627948 -115.246278 209 77ft 0kts
08-Apr-15 06:52 32.627948 -115.246278 209 77ft 0kts
08-Apr-15 06:53 32.627948 -115.246278 209 77ft 0kts
08-Apr-15 06:54 32.627948 -115.246278 209 77ft 0kts
08-Apr-15 06:55 32.627948 -115.246278 209 77ft 0kts
08-Apr-15 06:56 32.627948 -115.246278 209 77ft 0kts
08-Apr-15 06:57 32.627948 -115.246278 209 77ft 0kts
08-Apr-15 06:58 32.627948 -115.246278 209 77ft 0kts
08-Apr-15 06:59 32.627948 -115.246278 209 77ft 0kts
08-Apr-15 07:00 32.627947 -115.246278 209 77ft 0kts
08-Apr-15 07:01 32.627945 -115.246279 209 77ft 0kts
08-Apr-15 07:02 32.627943 -115.246281 209 77ft 0kts
08-Apr-15 07:03 32.627940 -115.246283 209 77ft 0kts
08-Apr-15 07:04 32.629000 -115.245567 26 77ft 13kts
08-Apr-15 07:05 32.629980 -115.241884 79 77ft 1kts
08-Apr-15 07:06 32.630034 -115.241512 79 77ft 9kts
08-Apr-15 07:07 32.628611 -115.237450 118 77ft 38kts
08-Apr-15 07:08 32.625212 -115.229817 293 77ft 5kts
08-Apr-15 07:09 32.631469 -115.243427 299 399ft 121kts
08-Apr-15 07:10 32.645617 -115.284105 275 2722ft 159kts
08-Apr-15 07:11 32.669005 -115.324422 290 5225ft 165kts
08-Apr-15 07:12 32.688942 -115.376718 306 7524ft 178kts
08-Apr-15 07:13 32.710739 -115.426746 289 9652ft 189kts
08-Apr-15 07:14 32.741329 -115.492171 281 10032ft 258kts
08-Apr-15 07:15 32.745698 -115.577604 277 10023ft 252kts
08-Apr-15 07:16 32.749531 -115.657989 275 9976ft 240kts
08-Apr-15 07:17 32.755719 -115.738813 270 10078ft 249kts
08-Apr-15 07:18 32.754771 -115.822603 271 10028ft 257kts
08-Apr-15 07:19 32.762238 -115.907820 274 10003ft 261kts
08-Apr-15 07:20 32.766576 -115.993719 271 10059ft 259kts
08-Apr-15 07:21 32.767740 -116.079148 268 10024ft 257kts
08-Apr-15 07:22 32.763983 -116.149483 265 9974ft 256kts
08-Apr-15 07:23 32.764820 -116.247283 275 10021ft 253kts
08-Apr-15 07:24 32.775146 -116.330235 277 10032ft 252kts
08-Apr-15 07:25 32.779531 -116.399978 273 9965ft 255kts
08-Apr-15 07:26 32.781190 -116.483837 271 9947ft 251kts
08-Apr-15 07:27 32.779736 -116.560866 269 8858ft 220kts
08-Apr-15 07:28 32.783042 -116.639574 274 8125ft 236kts
08-Apr-15 07:29 32.777166 -116.714909 235 7601ft 244kts
08-Apr-15 07:30 32.725675 -116.769144 223 6484ft 251kts
08-Apr-15 07:31 32.674456 -116.825692 224 5018ft 226kts
08-Apr-15 07:32 32.645964 -116.886482 294 4898ft 230kts
08-Apr-15 07:33 32.676705 -116.951273 295 4060ft 218kts
08-Apr-15 07:34 32.689340 -117.014087 288 2766ft 185kts
08-Apr-15 07:35 32.703823 -117.064573 284 2565ft 161kts
08-Apr-15 07:36 32.713399 -117.105813 285 1775ft 110kts
08-Apr-15 07:37 32.721589 -117.139806 285 784ft 104kts
08-Apr-15 07:38 32.729446 -117.172529 286 196ft 103kts
08-Apr-15 07:39 32.735209 -117.196451 287 18ft 27kts
08-Apr-15 07:40 32.734775 -117.198347 150 18ft 0kts
08-Apr-15 07:41 32.734605 -117.198299 234 18ft 2kts
08-Apr-15 07:42 32.734524 -117.197654 107 18ft 10kts
08-Apr-15 07:43 32.733142 -117.191857 105 18ft 20kts
08-Apr-15 07:44 32.734397 -117.189520 106 18ft 9kts
08-Apr-15 07:45 32.733235 -117.184586 106 18ft 11kts
08-Apr-15 07:46 32.733006 -117.183692 106 18ft 9kts
08-Apr-15 07:47 32.735156 -117.184047 7 18ft 14kts
08-Apr-15 07:48 32.736710 -117.183729 5 18ft 0kts
08-Apr-15 07:49 32.736710 -117.183728 5 18ft 0kts
08-Apr-15 07:50 32.736710 -117.183728 5 18ft 0kts
08-Apr-15 07:51 32.736710 -117.183728 5 18ft 0kts
08-Apr-15 07:52 32.736710 -117.183728 5 18ft 0kts
08-Apr-15 07:53 32.736710 -117.183728 5 18ft 0kts

Navigation Log

Ident Type
Flight plan parsing failed, navigation log unavailable